Time;durP1;ratioP1;P1;durP2;ratioP2;P2;SDS_P1;SDS_P2;PMS_P1;PMS_P2;Temp;Humidity;BMP_temperature;BMP_pressure;BME280_temperature;BME280_humidity;BME280_pressure;Samples;Min_cycle;Max_cycle;Signal;HPM_P1;HPM_P2
2021/12/27 00:00:14;;;;;;;47.85;24.52;;;-2.60;99.90;;;;;;4993120;28;20022;-81
2021/12/27 00:02:40;;;;;;;47.80;25.42;;;-2.60;99.90;;;;;;4978737;28;20030;-81
2021/12/27 00:05:06;;;;;;;43.28;24.13;;;-2.70;99.90;;;;;;4996596;28;20390;-81
2021/12/27 00:07:32;;;;;;;44.03;24.13;;;-2.70;99.90;;;;;;4996834;28;20030;-82
2021/12/27 00:09:58;;;;;;;53.45;26.67;;;-2.70;99.90;;;;;;4996790;28;20080;-82
2021/12/27 00:12:23;;;;;;;44.22;23.60;;;-2.70;99.90;;;;;;4996056;28;20031;-81
2021/12/27 00:14:49;;;;;;;44.17;23.35;;;-2.70;99.90;;;;;;4979344;28;20029;-82
2021/12/27 00:17:14;;;;;;;44.85;24.23;;;-2.70;99.90;;;;;;4979230;28;20084;-82
2021/12/27 00:19:41;;;;;;;54.42;26.00;;;-2.70;99.90;;;;;;4979325;28;20486;-81
2021/12/27 00:22:06;;;;;;;44.63;24.77;;;-2.70;99.90;;;;;;4978699;28;20378;-81
2021/12/27 00:24:35;;;;;;;47.85;26.40;;;-2.70;99.90;;;;;;4979298;28;20030;-81
2021/12/27 00:27:01;;;;;;;52.70;27.15;;;-2.60;99.90;;;;;;4996145;28;20074;-82
2021/12/27 00:29:27;;;;;;;44.88;24.90;;;-2.60;99.90;;;;;;4996380;28;20109;-81
2021/12/27 00:31:53;;;;;;;47.75;25.55;;;-2.60;99.90;;;;;;4995932;28;20034;-81
2021/12/27 00:34:18;;;;;;;45.40;24.00;;;-2.60;99.90;;;;;;4978930;28;20030;-81
2021/12/27 00:36:44;;;;;;;43.08;24.13;;;-2.60;99.90;;;;;;4995983;28;20042;-81
2021/12/27 00:39:12;;;;;;;45.00;24.00;;;-2.60;99.90;;;;;;4996275;28;20406;-81
2021/12/27 00:41:37;;;;;;;52.25;26.17;;;-2.60;99.90;;;;;;4978429;28;20026;-80
2021/12/27 00:44:03;;;;;;;46.30;24.85;;;-2.60;99.90;;;;;;4995911;28;20038;-81
2021/12/27 00:46:29;;;;;;;43.95;23.85;;;-2.60;99.90;;;;;;4995958;28;20022;-81
2021/12/27 00:48:56;;;;;;;46.70;25.52;;;-2.50;99.90;;;;;;4996057;28;20518;-81
2021/12/27 00:51:21;;;;;;;49.33;26.00;;;-2.50;99.90;;;;;;4995873;28;20022;-81
2021/12/27 00:53:48;;;;;;;45.38;26.05;;;-2.40;99.90;;;;;;4978695;28;20452;-81
2021/12/27 00:56:13;;;;;;;54.10;28.30;;;-2.40;99.90;;;;;;4995470;28;20410;-81
2021/12/27 00:58:40;;;;;;;47.72;26.63;;;-2.40;99.90;;;;;;4996154;28;20034;-81
2021/12/27 01:01:05;;;;;;;49.10;25.65;;;-2.30;99.90;;;;;;4995676;28;20030;-81
2021/12/27 01:03:32;;;;;;;40.83;22.67;;;-2.30;99.90;;;;;;4995880;28;20367;-82
2021/12/27 01:05:58;;;;;;;44.70;23.65;;;-2.40;99.90;;;;;;4995652;28;20061;-81
2021/12/27 01:08:24;;;;;;;45.33;25.30;;;-2.30;99.90;;;;;;4995783;28;20042;-81
2021/12/27 01:11:01;;;;;;;47.85;24.70;;;-2.30;99.90;;;;;;4995030;28;20022;-82
2021/12/27 01:16:12;;;;;;;41.00;23.38;;;-2.30;99.90;;;;;;4995855;28;20062;-81
2021/12/27 01:18:47;;;;;;;42.95;22.95;;;-2.30;99.90;;;;;;4978083;28;20034;-81
2021/12/27 01:21:15;;;;;;;54.42;27.27;;;-2.30;99.90;;;;;;4995062;28;20029;-82
2021/12/27 01:23:40;;;;;;;46.55;24.83;;;-2.20;99.90;;;;;;4995584;28;20030;-81
2021/12/27 01:26:06;;;;;;;45.38;24.85;;;-2.20;99.90;;;;;;4977557;28;20057;-81
2021/12/27 01:28:33;;;;;;;43.28;23.02;;;-2.20;99.90;;;;;;4995050;28;20018;-82
2021/12/27 01:30:59;;;;;;;53.00;25.50;;;-2.10;99.90;;;;;;4994901;28;20018;-81
2021/12/27 01:33:26;;;;;;;56.20;27.90;;;-2.10;99.90;;;;;;4995352;28;20030;-81
2021/12/27 01:35:52;;;;;;;41.40;22.92;;;-2.10;99.90;;;;;;4995112;28;20041;-81
2021/12/27 01:38:18;;;;;;;46.75;25.92;;;-2.10;99.90;;;;;;4994811;28;20022;-81
2021/12/27 01:40:48;;;;;;;57.10;27.25;;;-2.00;99.90;;;;;;4977040;28;20030;-81
2021/12/27 01:43:21;;;;;;;57.72;28.92;;;-2.00;99.90;;;;;;4977286;28;20034;-82
2021/12/27 01:46:03;;;;;;;54.45;27.80;;;-1.90;99.90;;;;;;4977702;28;20085;-81
2021/12/27 01:48:32;;;;;;;49.78;25.98;;;-1.90;99.90;;;;;;4994754;28;20106;-82
2021/12/27 01:51:00;;;;;;;52.65;26.55;;;-1.90;99.90;;;;;;4994866;28;20026;-82
2021/12/27 01:53:29;;;;;;;51.00;25.40;;;-2.00;99.90;;;;;;4994893;28;20023;-82
2021/12/27 01:55:59;;;;;;;44.63;23.65;;;-2.00;99.90;;;;;;4994551;28;20030;-82
2021/12/27 01:58:26;;;;;;;46.28;23.65;;;-2.00;99.90;;;;;;4994899;28;20027;-82
2021/12/27 02:00:54;;;;;;;52.92;25.50;;;-2.10;99.90;;;;;;4994675;28;20030;-82
2021/12/27 02:03:22;;;;;;;53.42;26.70;;;-2.10;99.90;;;;;;4976804;28;20053;-81
2021/12/27 02:05:48;;;;;;;48.05;25.60;;;-2.10;99.90;;;;;;4976872;28;20034;-81
2021/12/27 02:08:14;;;;;;;53.72;26.10;;;-2.10;99.90;;;;;;4977148;28;20026;-81
2021/12/27 02:10:40;;;;;;;53.17;26.40;;;-2.10;99.90;;;;;;4994261;28;20064;-81
2021/12/27 02:13:06;;;;;;;50.45;25.95;;;-2.10;99.90;;;;;;4994554;28;20026;-81
2021/12/27 02:15:36;;;;;;;51.88;25.52;;;-2.00;99.90;;;;;;4977158;28;20023;-81
2021/12/27 02:18:03;;;;;;;46.72;25.75;;;-2.00;99.90;;;;;;4994257;28;20093;-89
2021/12/27 02:20:33;;;;;;;56.47;27.77;;;-2.10;99.90;;;;;;4994471;28;20419;-89
2021/12/27 02:23:02;;;;;;;56.08;28.02;;;-2.10;99.90;;;;;;4976934;28;20030;-88
2021/12/27 02:25:33;;;;;;;51.25;26.67;;;-2.00;99.90;;;;;;4976595;28;20050;-89
2021/12/27 02:28:28;;;;;;;49.28;27.67;;;-2.00;99.90;;;;;;4976853;28;20034;-89
2021/12/27 02:30:54;;;;;;;47.08;24.70;;;-2.00;99.90;;;;;;4994220;28;20493;-89
2021/12/27 02:33:39;;;;;;;51.47;26.33;;;-2.00;99.90;;;;;;4993932;28;20034;-89
2021/12/27 02:39:45;;;;;;;52.03;26.08;;;-2.00;99.90;;;;;;4994388;28;20065;-89
2021/12/27 02:42:19;;;;;;;50.13;27.15;;;-2.00;99.90;;;;;;4993453;28;20053;-89
2021/12/27 02:44:45;;;;;;;50.42;27.17;;;-1.90;99.90;;;;;;4993928;28;20081;-89
2021/12/27 02:47:10;;;;;;;51.40;26.83;;;-1.90;99.90;;;;;;4993953;28;20014;-89
2021/12/27 02:49:38;;;;;;;80.78;31.70;;;-1.90;99.90;;;;;;4976403;28;20030;-89
2021/12/27 02:52:04;;;;;;;51.53;25.85;;;-1.90;99.90;;;;;;4993624;28;20023;-89
2021/12/27 02:54:50;;;;;;;49.88;24.63;;;-1.90;99.90;;;;;;4976227;28;20022;-89
2021/12/27 02:57:15;;;;;;;51.45;25.98;;;-1.90;99.90;;;;;;4976395;28;20034;-89
2021/12/27 02:59:57;;;;;;;43.05;22.92;;;-1.90;99.90;;;;;;4976178;28;20045;-89
2021/12/27 03:02:23;;;;;;;44.15;24.27;;;-1.80;99.90;;;;;;4993561;28;20066;-89
2021/12/27 03:04:56;;;;;;;41.75;24.08;;;-1.80;99.90;;;;;;4993494;28;20030;-90
2021/12/27 03:07:21;;;;;;;44.90;24.77;;;-1.80;99.90;;;;;;4993632;28;20031;-90
2021/12/27 03:09:47;;;;;;;48.00;26.30;;;-1.70;99.90;;;;;;4993724;28;20489;-90
2021/12/27 03:12:20;;;;;;;50.08;28.02;;;-1.60;99.90;;;;;;4993306;28;20506;-90
2021/12/27 03:14:46;;;;;;;55.67;27.70;;;-1.60;99.90;;;;;;4993539;28;20042;-89
2021/12/27 03:17:18;;;;;;;53.88;27.90;;;-1.60;99.90;;;;;;4993645;28;20026;-90
2021/12/27 03:19:43;;;;;;;51.05;27.52;;;-1.60;99.90;;;;;;4993516;28;20121;-89
2021/12/27 03:22:10;;;;;;;50.33;26.48;;;-1.50;99.90;;;;;;4975942;28;20456;-90
2021/12/27 03:24:35;;;;;;;58.70;29.52;;;-1.50;99.90;;;;;;4993291;28;20038;-90
2021/12/27 03:27:01;;;;;;;48.70;27.38;;;-1.40;99.90;;;;;;4992956;28;20173;-90
2021/12/27 03:29:29;;;;;;;49.40;26.35;;;-1.50;99.90;;;;;;4993310;28;20053;-90
2021/12/27 03:31:57;;;;;;;46.17;25.05;;;-1.40;99.90;;;;;;4993285;28;20030;-90
2021/12/27 03:34:23;;;;;;;52.17;27.10;;;-1.40;99.90;;;;;;4993388;28;20058;-88
2021/12/27 03:36:49;;;;;;;60.10;30.02;;;-1.40;99.90;;;;;;4995533;28;20046;-89
2021/12/27 03:39:14;;;;;;;59.20;29.90;;;-1.30;99.90;;;;;;4979808;28;20041;-90
2021/12/27 03:41:42;;;;;;;57.05;28.25;;;-1.30;99.90;;;;;;4996683;28;20061;-89
2021/12/27 03:44:07;;;;;;;45.85;25.70;;;-1.20;99.90;;;;;;4997207;28;20062;-90
2021/12/27 03:46:40;;;;;;;52.22;26.20;;;-1.20;99.90;;;;;;4997071;28;20112;-89
2021/12/27 03:49:05;;;;;;;49.97;25.63;;;-1.20;99.90;;;;;;4996902;28;20069;-89
2021/12/27 03:51:43;;;;;;;51.53;26.65;;;-1.30;99.90;;;;;;4996956;28;20026;-90
2021/12/27 03:54:08;;;;;;;46.15;25.60;;;-1.30;99.90;;;;;;4979528;28;20026;-90
2021/12/27 03:56:44;;;;;;;50.38;25.65;;;-1.30;99.90;;;;;;4996707;28;20064;-89
2021/12/27 04:01:55;;;;;;;54.28;25.73;;;-1.30;99.90;;;;;;4997032;28;20053;-90
2021/12/27 04:04:20;;;;;;;56.88;26.98;;;-1.30;99.90;;;;;;5015096;28;20029;-90
2021/12/27 04:06:46;;;;;;;49.92;26.67;;;-1.30;99.90;;;;;;5010740;28;20103;-89
2021/12/27 04:09:16;;;;;;;49.50;27.35;;;-1.30;99.90;;;;;;4979768;28;20031;-89
2021/12/27 04:11:41;;;;;;;52.05;28.63;;;-1.30;99.90;;;;;;4996509;28;20027;-89
2021/12/27 04:14:07;;;;;;;45.38;25.92;;;-1.30;99.90;;;;;;4979064;28;20034;-90
2021/12/27 04:16:46;;;;;;;49.67;25.33;;;-1.20;99.90;;;;;;4996097;28;20045;-90
2021/12/27 04:19:15;;;;;;;47.88;24.70;;;-1.30;99.90;;;;;;4996596;28;20041;-90
2021/12/27 04:21:41;;;;;;;48.08;25.30;;;-1.30;99.90;;;;;;4996189;28;20031;-90
2021/12/27 04:24:07;;;;;;;51.75;26.73;;;-1.40;99.90;;;;;;4996213;28;20040;-89
2021/12/27 04:26:39;;;;;;;51.53;27.17;;;-1.40;99.90;;;;;;4996303;28;20390;-90
2021/12/27 04:29:05;;;;;;;52.50;28.13;;;-1.40;99.90;;;;;;4978904;28;20026;-89
2021/12/27 04:31:38;;;;;;;56.33;28.55;;;-1.30;99.90;;;;;;4995968;28;20443;-89
2021/12/27 04:34:03;;;;;;;51.03;27.45;;;-1.40;99.90;;;;;;4995875;28;20065;-89
2021/12/27 04:36:29;;;;;;;50.47;27.85;;;-1.30;99.90;;;;;;4996182;28;20043;-89
2021/12/27 04:38:54;;;;;;;54.05;29.58;;;-1.30;99.90;;;;;;4996252;28;20030;-90
2021/12/27 04:41:23;;;;;;;55.00;28.88;;;-1.30;99.90;;;;;;4995836;28;20038;-91
2021/12/27 04:43:49;;;;;;;53.22;27.45;;;-1.30;99.90;;;;;;4978793;28;20125;-90
2021/12/27 04:46:20;;;;;;;57.63;27.95;;;-1.30;99.90;;;;;;4978732;28;20113;-90
2021/12/27 04:48:50;;;;;;;52.45;28.60;;;-1.30;99.90;;;;;;4977473;28;20078;-90
2021/12/27 04:51:35;;;;;;;52.03;28.48;;;-1.30;99.90;;;;;;4978760;28;20062;-90
2021/12/27 04:54:01;;;;;;;56.72;29.83;;;-1.30;99.90;;;;;;4978447;28;20040;-90
2021/12/27 04:56:47;;;;;;;61.70;30.15;;;-1.30;99.90;;;;;;4978394;28;20030;-91
2021/12/27 04:59:13;;;;;;;63.15;31.45;;;-1.30;99.90;;;;;;4995889;28;20393;-91
2021/12/27 05:01:38;;;;;;;58.53;31.38;;;-1.30;99.90;;;;;;4995924;28;20114;-90
2021/12/27 05:04:26;;;;;;;60.00;30.83;;;-1.20;99.90;;;;;;4978213;28;20026;-90
2021/12/27 05:06:51;;;;;;;59.13;29.63;;;-1.20;99.90;;;;;;4995856;28;20022;-91
2021/12/27 05:09:17;;;;;;;55.97;28.35;;;-1.20;99.90;;;;;;4995690;28;20026;-90
2021/12/27 05:11:48;;;;;;;54.97;28.17;;;-1.20;99.90;;;;;;4995122;28;20027;-89
2021/12/27 05:14:14;;;;;;;52.95;28.08;;;-1.20;99.90;;;;;;4995443;28;20095;-90
2021/12/27 05:16:39;;;;;;;53.33;26.80;;;-1.20;99.90;;;;;;4978217;28;20034;-91
2021/12/27 05:19:12;;;;;;;58.97;30.73;;;-1.30;99.90;;;;;;4977931;28;20041;-90
2021/12/27 05:21:38;;;;;;;59.72;31.08;;;-1.30;99.90;;;;;;4977410;28;20047;-90
2021/12/27 05:24:05;;;;;;;55.42;29.95;;;-1.30;99.90;;;;;;4995619;28;20029;-90
2021/12/27 05:26:30;;;;;;;61.85;30.95;;;-1.20;99.90;;;;;;4977821;28;20034;-90
2021/12/27 05:29:04;;;;;;;56.60;30.77;;;-1.20;99.90;;;;;;4995370;28;20027;-90
2021/12/27 05:31:31;;;;;;;54.08;28.50;;;-1.30;99.90;;;;;;4995392;28;20023;-90
2021/12/27 05:34:14;;;;;;;58.65;31.73;;;-1.30;99.90;;;;;;4995385;28;20033;-90
2021/12/27 05:36:42;;;;;;;57.78;31.77;;;-1.30;99.90;;;;;;4995101;28;20394;-91
2021/12/27 05:39:09;;;;;;;65.95;33.08;;;-1.30;99.90;;;;;;4995424;28;20026;-90
2021/12/27 05:42:06;;;;;;;57.28;30.77;;;-1.20;99.90;;;;;;4977296;28;20037;-90
2021/12/27 05:44:31;;;;;;;59.55;31.27;;;-1.20;99.90;;;;;;4958206;28;20364;-90
2021/12/27 05:46:57;;;;;;;58.58;30.38;;;-1.20;99.90;;;;;;4975659;28;20103;-90
2021/12/27 05:49:25;;;;;;;57.33;30.30;;;-1.30;99.90;;;;;;4975522;28;20019;-90
2021/12/27 05:51:52;;;;;;;56.17;30.98;;;-1.30;99.90;;;;;;4958089;28;20019;-90
2021/12/27 05:54:20;;;;;;;55.45;30.75;;;-1.30;99.90;;;;;;4975572;28;20895;-89
2021/12/27 05:56:49;;;;;;;57.15;31.50;;;-1.30;99.90;;;;;;4957703;28;20110;-89
2021/12/27 05:59:16;;;;;;;58.55;30.48;;;-1.30;99.90;;;;;;4957604;28;20066;-89
2021/12/27 06:01:43;;;;;;;58.92;31.50;;;-1.20;99.90;;;;;;4957867;28;20082;-89
2021/12/27 06:04:11;;;;;;;56.58;29.75;;;-1.10;99.90;;;;;;4972499;28;20026;-89
2021/12/27 06:06:36;;;;;;;65.13;31.65;;;-1.10;99.90;;;;;;4993929;28;20371;-89
2021/12/27 06:09:04;;;;;;;60.53;31.15;;;-1.10;99.90;;;;;;4994491;28;20033;-89
2021/12/27 06:11:36;;;;;;;60.47;31.98;;;-1.10;99.90;;;;;;4993488;28;20116;-90
2021/12/27 06:14:02;;;;;;;59.25;31.23;;;-1.10;99.90;;;;;;4994363;28;20026;-89
2021/12/27 06:16:27;;;;;;;59.83;30.90;;;-1.10;99.90;;;;;;4976756;28;20509;-89
2021/12/27 06:19:02;;;;;;;60.17;31.52;;;-1.10;99.90;;;;;;4976921;28;20073;-89
2021/12/27 06:21:28;;;;;;;59.30;31.33;;;-1.00;99.90;;;;;;4976540;28;20026;-89
2021/12/27 06:23:54;;;;;;;52.88;29.30;;;-1.10;99.90;;;;;;4976865;28;20389;-89
2021/12/27 06:26:19;;;;;;;58.83;30.02;;;-1.10;99.90;;;;;;4976392;28;20117;-87
2021/12/27 06:28:45;;;;;;;55.10;30.42;;;-1.10;99.90;;;;;;4994154;28;20022;-89
2021/12/27 06:31:12;;;;;;;66.30;33.45;;;-1.10;99.90;;;;;;4993956;28;20033;-81
2021/12/27 06:33:37;;;;;;;62.20;33.85;;;-1.10;99.90;;;;;;4993743;28;20113;-81
2021/12/27 06:36:03;;;;;;;58.78;32.15;;;-1.10;99.90;;;;;;4975990;28;20554;-82
2021/12/27 06:38:29;;;;;;;61.20;33.15;;;-1.00;99.90;;;;;;4993711;28;20049;-81
2021/12/27 06:40:55;;;;;;;60.28;32.90;;;-1.00;99.90;;;;;;4976172;28;20149;-81
2021/12/27 06:43:21;;;;;;;57.92;32.40;;;-1.00;99.90;;;;;;4993414;28;20026;-81
2021/12/27 06:45:46;;;;;;;66.32;35.38;;;-1.00;99.90;;;;;;4993530;28;20078;-82
2021/12/27 06:48:12;;;;;;;75.45;39.03;;;-1.00;99.90;;;;;;4993803;28;20383;-82
2021/12/27 06:50:38;;;;;;;79.13;39.22;;;-1.00;99.90;;;;;;4993541;28;20033;-81
2021/12/27 06:53:04;;;;;;;98.38;43.38;;;-0.90;99.90;;;;;;4994724;28;20023;-81
2021/12/27 06:55:29;;;;;;;118.68;52.70;;;-1.00;99.90;;;;;;5002875;28;20027;-81
2021/12/27 06:57:55;;;;;;;115.40;52.05;;;-0.90;99.90;;;;;;4975526;28;20038;-81
2021/12/27 07:00:20;;;;;;;98.03;46.75;;;-0.90;99.90;;;;;;4976268;28;20034;-81
2021/12/27 07:02:46;;;;;;;78.22;39.97;;;-1.00;99.90;;;;;;4993021;28;20037;-81
2021/12/27 07:05:13;;;;;;;74.68;40.38;;;-0.90;99.90;;;;;;4993495;28;20034;-81
2021/12/27 07:07:41;;;;;;;84.20;41.85;;;-0.90;99.90;;;;;;4993461;28;20058;-81
2021/12/27 07:10:10;;;;;;;76.07;39.42;;;-1.00;99.90;;;;;;4988291;28;20037;-81
2021/12/27 07:12:41;;;;;;;69.93;40.17;;;-0.90;99.90;;;;;;4992822;28;20037;-81
2021/12/27 07:15:07;;;;;;;95.78;50.85;;;-1.00;99.90;;;;;;4992788;28;20041;-81
2021/12/27 07:17:33;;;;;;;99.10;54.35;;;-0.90;99.90;;;;;;4975253;28;20067;-81
2021/12/27 07:19:58;;;;;;;80.90;46.50;;;-0.90;99.90;;;;;;4993188;28;20113;-81
2021/12/27 07:22:25;;;;;;;86.53;46.58;;;-0.80;99.90;;;;;;4975264;28;20474;-81
2021/12/27 07:24:50;;;;;;;88.28;48.08;;;-0.80;99.90;;;;;;4992499;28;20027;-81
2021/12/27 07:27:17;;;;;;;83.75;41.97;;;-0.80;99.90;;;;;;4975583;28;20038;-81
2021/12/27 07:29:43;;;;;;;69.95;40.72;;;-0.80;99.90;;;;;;4993114;28;20409;-81
2021/12/27 07:32:08;;;;;;;77.85;38.55;;;-0.90;99.90;;;;;;4992923;28;20022;-81
2021/12/27 07:34:36;;;;;;;71.35;40.60;;;-0.90;99.90;;;;;;4993040;28;20051;-81
2021/12/27 07:37:02;;;;;;;85.10;41.75;;;-0.90;99.90;;;;;;4992934;28;20386;-81
2021/12/27 07:39:32;;;;;;;84.10;41.42;;;-0.80;99.90;;;;;;4975035;28;20127;-81
2021/12/27 07:41:57;;;;;;;71.63;37.17;;;-0.80;99.90;;;;;;4975286;28;20081;-81
2021/12/27 07:44:23;;;;;;;78.55;40.20;;;-0.70;99.90;;;;;;4992722;28;20046;-81
2021/12/27 07:46:49;;;;;;;69.55;37.10;;;-0.70;99.90;;;;;;4975527;28;20054;-81
2021/12/27 07:49:17;;;;;;;83.60;41.70;;;-0.80;99.90;;;;;;4992802;28;20031;-81
2021/12/27 07:51:44;;;;;;;80.10;41.65;;;-0.80;99.90;;;;;;4992646;28;20034;-81
2021/12/27 07:54:10;;;;;;;77.45;39.40;;;-0.70;99.90;;;;;;4992691;28;20069;-81
2021/12/27 07:56:37;;;;;;;73.30;37.67;;;-0.70;99.90;;;;;;4978606;28;20331;-81
2021/12/27 07:59:04;;;;;;;77.85;39.47;;;-0.70;99.90;;;;;;5012722;28;20029;-81
2021/12/27 08:01:35;;;;;;;71.82;38.75;;;-0.60;99.90;;;;;;4994805;28;20037;-81
2021/12/27 08:04:02;;;;;;;73.40;37.42;;;-0.70;99.90;;;;;;5012589;28;20029;-81
2021/12/27 08:06:28;;;;;;;66.40;36.45;;;-0.70;99.90;;;;;;5012133;28;20026;-81
2021/12/27 08:08:55;;;;;;;68.20;33.88;;;-0.70;99.90;;;;;;5012545;28;20025;-81
2021/12/27 08:11:21;;;;;;;59.92;35.30;;;-0.70;99.90;;;;;;4994560;28;20022;-81
2021/12/27 08:13:46;;;;;;;68.80;37.10;;;-0.70;99.90;;;;;;5012380;28;20026;-81
2021/12/27 08:16:12;;;;;;;74.55;37.85;;;-0.70;99.90;;;;;;5012643;28;20036;-81
2021/12/27 08:18:41;;;;;;;74.05;38.28;;;-0.70;99.90;;;;;;4994341;28;20030;-81
2021/12/27 08:21:07;;;;;;;81.60;42.67;;;-0.70;99.90;;;;;;4992161;28;20050;-82
2021/12/27 08:23:33;;;;;;;80.97;41.55;;;-0.60;99.90;;;;;;4991994;28;20026;-81
2021/12/27 08:25:58;;;;;;;76.28;41.33;;;-0.50;99.90;;;;;;4996135;28;20074;-81
2021/12/27 08:28:24;;;;;;;66.70;36.90;;;-0.40;99.90;;;;;;4996250;28;20030;-81
2021/12/27 08:30:49;;;;;;;71.30;38.38;;;-0.50;99.90;;;;;;4978465;28;20506;-81
2021/12/27 08:33:18;;;;;;;80.35;39.65;;;-0.50;99.90;;;;;;4978753;28;20374;-81
2021/12/27 08:35:47;;;;;;;66.97;36.75;;;-0.40;99.90;;;;;;4995857;28;20050;-81
2021/12/27 08:38:13;;;;;;;73.35;37.38;;;-0.40;99.90;;;;;;4996137;28;20029;-81
2021/12/27 08:40:38;;;;;;;68.82;35.95;;;-0.40;99.90;;;;;;4978376;28;20026;-81
2021/12/27 08:43:04;;;;;;;79.38;43.13;;;-0.50;99.90;;;;;;4978445;28;20027;-81
2021/12/27 08:45:30;;;;;;;87.38;44.70;;;-0.40;99.90;;;;;;4978376;28;20046;-81
2021/12/27 08:47:55;;;;;;;84.60;41.63;;;-0.30;99.90;;;;;;4978590;28;20046;-81
2021/12/27 08:50:21;;;;;;;70.15;38.35;;;-0.20;99.90;;;;;;4995882;28;20462;-80
2021/12/27 08:52:47;;;;;;;65.53;36.45;;;-0.20;99.90;;;;;;4995662;28;20474;-81
2021/12/27 08:55:14;;;;;;;68.03;39.13;;;-0.20;99.90;;;;;;4978073;28;20026;-81
2021/12/27 08:57:40;;;;;;;86.05;41.78;;;-0.30;99.90;;;;;;4995640;28;20034;-82
2021/12/27 09:00:09;;;;;;;81.68;40.95;;;-0.20;99.90;;;;;;4995750;28;20117;-81
2021/12/27 09:02:34;;;;;;;85.80;41.97;;;-0.20;99.90;;;;;;4995665;28;20030;-81
2021/12/27 09:05:02;;;;;;;76.53;40.60;;;-0.10;99.90;;;;;;4995574;28;20077;-82
2021/12/27 09:07:28;;;;;;;77.55;42.13;;;-0.10;99.90;;;;;;4995396;28;20066;-81
2021/12/27 09:09:54;;;;;;;91.15;45.47;;;0.00;99.90;;;;;;4994991;28;20023;-82
2021/12/27 09:12:19;;;;;;;102.45;53.47;;;0.00;99.90;;;;;;4995521;28;20362;-82
2021/12/27 09:14:45;;;;;;;99.85;52.03;;;0.10;99.90;;;;;;4995493;28;20030;-81
2021/12/27 09:17:11;;;;;;;99.97;50.10;;;0.30;99.90;;;;;;4978074;28;20038;-82
2021/12/27 09:19:38;;;;;;;83.00;44.70;;;0.40;99.90;;;;;;4978189;28;20022;-81
2021/12/27 09:22:04;;;;;;;77.97;43.80;;;0.50;99.90;;;;;;4995403;28;20034;-81
2021/12/27 09:24:31;;;;;;;85.10;45.83;;;0.50;99.90;;;;;;4993138;28;20041;-81
2021/12/27 09:26:58;;;;;;;102.95;51.58;;;0.50;99.90;;;;;;4995040;28;20014;-81
2021/12/27 09:29:26;;;;;;;90.53;49.42;;;0.70;99.90;;;;;;4995159;28;20491;-82
2021/12/27 09:31:52;;;;;;;88.63;46.38;;;0.80;99.90;;;;;;4994905;28;20018;-81
2021/12/27 09:34:21;;;;;;;81.60;40.72;;;0.90;99.90;;;;;;4976642;28;20033;-81
2021/12/27 09:36:47;;;;;;;77.47;41.70;;;0.90;99.90;;;;;;4994956;28;20069;-82
2021/12/27 09:39:15;;;;;;;70.38;38.30;;;0.90;99.90;;;;;;4994915;28;20030;-82
2021/12/27 09:41:41;;;;;;;73.82;40.33;;;1.00;99.90;;;;;;4994834;28;20422;-81
2021/12/27 09:44:07;;;;;;;91.45;44.30;;;1.00;99.90;;;;;;4995243;28;20034;-81
2021/12/27 09:46:33;;;;;;;90.65;44.60;;;1.10;99.90;;;;;;4994990;28;20026;-81
2021/12/27 09:49:02;;;;;;;79.57;40.38;;;1.10;99.90;;;;;;4994757;28;20073;-81
2021/12/27 09:51:30;;;;;;;67.43;37.78;;;1.30;99.90;;;;;;4994608;28;20025;-87
2021/12/27 09:54:06;;;;;;;72.13;38.55;;;1.20;99.90;;;;;;4977089;28;20113;-88
2021/12/27 09:56:32;;;;;;;66.75;35.95;;;1.30;99.90;;;;;;4994681;28;20030;-87
2021/12/27 09:58:57;;;;;;;65.28;35.85;;;1.40;99.90;;;;;;4994639;28;20528;-88
2021/12/27 10:01:23;;;;;;;58.70;31.35;;;1.40;99.90;;;;;;4994280;28;20037;-87
2021/12/27 10:03:58;;;;;;;47.75;24.67;;;1.50;99.90;;;;;;4994145;28;20034;-88
2021/12/27 10:06:27;;;;;;;58.67;32.05;;;1.50;99.90;;;;;;4977061;28;20395;-87
2021/12/27 10:08:58;;;;;;;67.03;33.55;;;1.60;99.90;;;;;;4986284;28;20444;-88
2021/12/27 10:11:53;;;;;;;60.58;31.70;;;1.60;99.90;;;;;;4976160;28;20036;-88
2021/12/27 10:14:21;;;;;;;62.63;33.42;;;1.60;99.90;;;;;;4994244;28;20023;-87
2021/12/27 10:17:11;;;;;;;67.93;37.47;;;1.50;99.90;;;;;;4990961;28;20089;-88
2021/12/27 10:19:53;;;;;;;57.53;31.80;;;1.50;99.90;;;;;;4994162;28;20030;-87
2021/12/27 10:22:20;;;;;;;61.38;34.20;;;1.50;99.90;;;;;;4994133;28;20027;-87
2021/12/27 10:24:51;;;;;;;61.80;32.60;;;1.50;99.90;;;;;;4988371;28;20411;-88
2021/12/27 10:27:18;;;;;;;74.40;38.63;;;1.50;99.90;;;;;;4976924;28;20125;-87
2021/12/27 10:29:44;;;;;;;71.18;40.53;;;1.50;99.90;;;;;;4993944;28;20418;-87
2021/12/27 10:32:16;;;;;;;83.97;42.30;;;1.50;99.90;;;;;;4993670;28;20031;-86
2021/12/27 10:34:51;;;;;;;85.35;44.20;;;1.50;99.90;;;;;;4976652;28;20030;-87
2021/12/27 10:37:30;;;;;;;78.57;42.75;;;1.40;99.90;;;;;;4992713;28;20619;-87
2021/12/27 10:40:09;;;;;;;70.93;38.75;;;1.40;99.90;;;;;;4991587;28;20078;-86
2021/12/27 10:42:45;;;;;;;76.70;43.55;;;1.50;99.90;;;;;;4993519;28;20093;-86
2021/12/27 10:45:16;;;;;;;63.00;32.30;;;1.60;99.90;;;;;;4976097;28;20094;-86
2021/12/27 10:47:47;;;;;;;69.60;34.80;;;1.60;99.90;;;;;;4993661;28;20407;-86
2021/12/27 10:50:25;;;;;;;67.07;36.30;;;1.80;99.90;;;;;;4976140;28;20027;-86
2021/12/27 10:52:50;;;;;;;46.90;25.30;;;2.00;99.90;;;;;;4993501;28;20022;-85
2021/12/27 10:55:23;;;;;;;29.60;16.83;;;2.00;99.90;;;;;;4993022;28;20368;-86
2021/12/27 10:57:50;;;;;;;30.40;16.70;;;2.30;99.90;;;;;;4998501;28;20104;-85
2021/12/27 11:00:28;;;;;;;29.27;17.55;;;2.50;99.90;;;;;;5013337;28;20022;-86
2021/12/27 11:02:54;;;;;;;24.90;15.27;;;2.70;99.90;;;;;;5013148;28;20611;-87
2021/12/27 11:05:25;;;;;;;24.95;14.10;;;2.60;99.90;;;;;;5013013;28;20046;-86
2021/12/27 11:07:59;;;;;;;24.15;14.73;;;2.70;99.90;;;;;;5013187;28;20048;-86
2021/12/27 11:10:27;;;;;;;28.33;16.67;;;2.80;99.90;;;;;;5012716;28;20422;-87
2021/12/27 11:12:59;;;;;;;28.00;15.75;;;2.90;99.90;;;;;;5012855;28;20427;-86
2021/12/27 11:15:27;;;;;;;26.55;15.05;;;2.90;99.90;;;;;;5013089;28;20144;-86
2021/12/27 11:17:55;;;;;;;24.83;14.02;;;3.00;99.90;;;;;;5012454;28;20105;-86
2021/12/27 11:20:21;;;;;;;23.13;14.88;;;3.00;99.90;;;;;;4994977;28;20040;-86
2021/12/27 11:22:49;;;;;;;23.05;13.07;;;3.00;99.90;;;;;;5012781;28;20030;-86
2021/12/27 11:25:37;;;;;;;23.10;13.48;;;3.10;99.90;;;;;;5012531;28;20037;-87
2021/12/27 11:28:05;;;;;;;25.13;14.52;;;3.10;99.90;;;;;;4996339;28;20026;-86
2021/12/27 11:30:35;;;;;;;28.10;15.73;;;3.10;99.90;;;;;;4993007;28;20470;-86
2021/12/27 11:33:16;;;;;;;23.65;13.00;;;3.10;99.90;;;;;;4992920;28;20029;-86
2021/12/27 11:35:57;;;;;;;19.83;12.80;;;3.10;99.90;;;;;;4991692;28;20057;-86
2021/12/27 11:38:44;;;;;;;21.95;13.02;;;3.10;99.90;;;;;;4973813;28;20033;-86
2021/12/27 11:41:36;;;;;;;21.02;11.82;;;3.20;99.90;;;;;;4986517;28;20050;-86
2021/12/27 11:44:07;;;;;;;23.05;12.05;;;3.20;99.90;;;;;;4975206;28;20041;-87
2021/12/27 11:46:47;;;;;;;19.95;11.15;;;3.30;99.90;;;;;;4993102;28;20462;-87
2021/12/27 11:49:14;;;;;;;16.15;10.00;;;3.30;99.90;;;;;;4992825;28;20491;-88
2021/12/27 11:51:53;;;;;;;18.92;10.50;;;3.40;99.90;;;;;;4975370;28;20037;-88
2021/12/27 11:54:27;;;;;;;17.20;10.45;;;3.40;99.90;;;;;;4992574;28;20070;-88
2021/12/27 11:56:58;;;;;;;16.88;10.38;;;3.50;99.90;;;;;;4993567;28;20110;-88
2021/12/27 11:59:35;;;;;;;15.50;9.90;;;3.50;99.90;;;;;;4996809;28;20101;-89
2021/12/27 12:02:16;;;;;;;16.38;8.70;;;3.60;99.90;;;;;;4996879;28;20033;-89
2021/12/27 12:04:44;;;;;;;13.10;9.00;;;3.60;99.90;;;;;;4978580;28;20033;-89
2021/12/27 12:07:11;;;;;;;13.80;8.60;;;3.70;99.90;;;;;;4996672;28;20073;-90
2021/12/27 12:09:49;;;;;;;14.05;8.27;;;3.80;99.90;;;;;;4978928;28;20555;-89
2021/12/27 12:12:30;;;;;;;12.82;8.40;;;4.00;99.90;;;;;;4996486;28;20070;-90
2021/12/27 12:14:57;;;;;;;14.07;7.95;;;4.00;99.90;;;;;;4979178;28;20037;-87
2021/12/27 12:17:44;;;;;;;18.20;9.13;;;4.00;99.90;;;;;;4996463;28;20061;-88
2021/12/27 12:21:04;;;;;;;12.23;8.32;;;4.10;99.90;;;;;;4979039;28;20027;-88
2021/12/27 12:23:35;;;;;;;12.75;8.52;;;4.00;99.90;;;;;;4995643;28;20130;-88
2021/12/27 12:26:14;;;;;;;13.75;8.25;;;4.10;99.90;;;;;;4978961;28;20045;-88
2021/12/27 12:28:39;;;;;;;11.80;8.07;;;4.00;99.90;;;;;;4985571;28;20033;-88
2021/12/27 12:31:07;;;;;;;13.05;7.20;;;4.10;99.90;;;;;;4999152;28;20030;-88
2021/12/27 12:33:33;;;;;;;11.88;7.22;;;4.10;99.90;;;;;;4979044;28;20537;-88
2021/12/27 12:36:01;;;;;;;11.65;6.57;;;4.10;99.90;;;;;;4978862;28;20046;-89
2021/12/27 12:38:35;;;;;;;11.20;7.45;;;4.10;99.90;;;;;;4996196;28;20044;-88
2021/12/27 12:41:16;;;;;;;8.77;6.20;;;4.10;99.90;;;;;;4996158;28;20027;-86
2021/12/27 12:43:50;;;;;;;11.82;7.10;;;4.10;99.90;;;;;;4996067;28;20034;-87
2021/12/27 12:46:40;;;;;;;10.95;6.85;;;4.10;99.90;;;;;;4977054;28;20026;-87
2021/12/27 12:49:07;;;;;;;10.97;6.60;;;4.10;99.90;;;;;;4978942;28;20019;-87